sensor_id;sensor_type;location;lat;lon;timestamp;pressure;altitude;pressure_sealevel;temperature;humidity
216;BME280;64590;48.81286795;9.14184224;2023-01-27T00:01:16;98530.38;;;0.16;77.22
216;BME280;64590;48.81286795;9.14184224;2023-01-27T00:03:43;98531.81;;;-0.04;78.65
216;BME280;64590;48.81286795;9.14184224;2023-01-27T00:06:10;98530.22;;;0.13;78.78
216;BME280;64590;48.81286795;9.14184224;2023-01-27T00:08:37;98530.56;;;0.11;77.32
216;BME280;64590;48.81286795;9.14184224;2023-01-27T00:11:04;98524.41;;;-0.03;78.04
216;BME280;64590;48.81286795;9.14184224;2023-01-27T00:13:54;98521.69;;;-0.12;78.03
216;BME280;64590;48.81286795;9.14184224;2023-01-27T00:16:22;98528.72;;;-0.11;78.58
216;BME280;64590;48.81286795;9.14184224;2023-01-27T00:18:48;98522.13;;;-0.18;78.71
216;BME280;64590;48.81286795;9.14184224;2023-01-27T00:21:15;98527.94;;;-0.11;79.44
216;BME280;64590;48.81286795;9.14184224;2023-01-27T00:24:14;98523.16;;;0.03;78.08
216;BME280;64590;48.81286795;9.14184224;2023-01-27T00:26:58;98521.53;;;-0.07;78.14
216;BME280;64590;48.81286795;9.14184224;2023-01-27T00:29:24;98514.13;;;-0.15;78.65
216;BME280;64590;48.81286795;9.14184224;2023-01-27T00:31:52;98517.03;;;-0.11;78.78
216;BME280;64590;48.81286795;9.14184224;2023-01-27T00:34:36;98512.56;;;-0.07;79.56
216;BME280;64590;48.81286795;9.14184224;2023-01-27T00:37:05;98521.06;;;0.00;78.59
216;BME280;64590;48.81286795;9.14184224;2023-01-27T00:39:32;98519.94;;;0.01;78.48
216;BME280;64590;48.81286795;9.14184224;2023-01-27T00:41:58;98526.50;;;0.09;78.36
216;BME280;64590;48.81286795;9.14184224;2023-01-27T00:44:25;98502.13;;;0.04;78.25
216;BME280;64590;48.81286795;9.14184224;2023-01-27T00:46:54;98524.41;;;-0.03;77.90
216;BME280;64590;48.81286795;9.14184224;2023-01-27T00:49:20;98521.84;;;-0.17;79.53
216;BME280;64590;48.81286795;9.14184224;2023-01-27T00:51:47;98526.38;;;0.05;79.03
216;BME280;64590;48.81286795;9.14184224;2023-01-27T00:54:14;98528.28;;;0.05;78.74
216;BME280;64590;48.81286795;9.14184224;2023-01-27T00:56:44;98519.31;;;0.04;78.35
216;BME280;64590;48.81286795;9.14184224;2023-01-27T00:59:11;98521.91;;;0.18;78.01
216;BME280;64590;48.81286795;9.14184224;2023-01-27T01:01:37;98528.59;;;-0.06;79.22
216;BME280;64590;48.81286795;9.14184224;2023-01-27T01:04:06;98533.09;;;0.08;78.87
216;BME280;64590;48.81286795;9.14184224;2023-01-27T01:06:32;98528.28;;;-0.04;78.66
216;BME280;64590;48.81286795;9.14184224;2023-01-27T01:08:59;98527.94;;;-0.11;79.76
216;BME280;64590;48.81286795;9.14184224;2023-01-27T01:11:26;98525.25;;;0.15;78.00
216;BME280;64590;48.81286795;9.14184224;2023-01-27T01:13:52;98535.56;;;0.26;78.54
216;BME280;64590;48.81286795;9.14184224;2023-01-27T01:16:21;98523.66;;;0.40;78.62
216;BME280;64590;48.81286795;9.14184224;2023-01-27T01:18:48;98534.09;;;0.46;79.17
216;BME280;64590;48.81286795;9.14184224;2023-01-27T01:21:16;98539.72;;;0.24;79.32
216;BME280;64590;48.81286795;9.14184224;2023-01-27T01:23:44;98533.63;;;0.27;78.18
216;BME280;64590;48.81286795;9.14184224;2023-01-27T01:26:13;98535.84;;;0.16;78.43
216;BME280;64590;48.81286795;9.14184224;2023-01-27T01:28:40;98537.44;;;0.17;78.28
216;BME280;64590;48.81286795;9.14184224;2023-01-27T01:31:09;98531.69;;;0.19;77.77
216;BME280;64590;48.81286795;9.14184224;2023-01-27T01:33:37;98531.38;;;0.20;78.10
216;BME280;64590;48.81286795;9.14184224;2023-01-27T01:36:05;98539.22;;;0.13;79.21
216;BME280;64590;48.81286795;9.14184224;2023-01-27T01:38:36;98531.19;;;0.17;77.40
216;BME280;64590;48.81286795;9.14184224;2023-01-27T01:41:04;98535.69;;;0.21;77.96
216;BME280;64590;48.81286795;9.14184224;2023-01-27T01:43:31;98535.22;;;0.11;77.10
216;BME280;64590;48.81286795;9.14184224;2023-01-27T01:45:58;98530.09;;;0.26;77.83
216;BME280;64590;48.81286795;9.14184224;2023-01-27T01:48:29;98526.38;;;0.22;77.57
216;BME280;64590;48.81286795;9.14184224;2023-01-27T01:51:00;98523.00;;;0.34;75.94
216;BME280;64590;48.81286795;9.14184224;2023-01-27T01:53:34;98515.78;;;0.21;75.54
216;BME280;64590;48.81286795;9.14184224;2023-01-27T01:56:10;98516.59;;;0.39;75.84
216;BME280;64590;48.81286795;9.14184224;2023-01-27T01:58:39;98510.47;;;0.24;77.33
216;BME280;64590;48.81286795;9.14184224;2023-01-27T02:01:06;98510.31;;;0.12;77.47
216;BME280;64590;48.81286795;9.14184224;2023-01-27T02:03:34;98510.34;;;0.21;75.50
216;BME280;64590;48.81286795;9.14184224;2023-01-27T02:06:03;98504.88;;;0.38;76.08
216;BME280;64590;48.81286795;9.14184224;2023-01-27T02:08:33;98494.28;;;0.37;75.09
216;BME280;64590;48.81286795;9.14184224;2023-01-27T02:11:01;98499.41;;;0.38;75.66
216;BME280;64590;48.81286795;9.14184224;2023-01-27T02:13:29;98501.34;;;0.20;74.86
216;BME280;64590;48.81286795;9.14184224;2023-01-27T02:15:56;98500.53;;;0.20;75.68
216;BME280;64590;48.81286795;9.14184224;2023-01-27T02:18:22;98500.22;;;0.30;75.02
216;BME280;64590;48.81286795;9.14184224;2023-01-27T02:20:50;98497.47;;;0.21;75.65
216;BME280;64590;48.81286795;9.14184224;2023-01-27T02:23:29;98502.78;;;0.26;76.71
216;BME280;64590;48.81286795;9.14184224;2023-01-27T02:26:04;98501.16;;;0.34;75.56
216;BME280;64590;48.81286795;9.14184224;2023-01-27T02:28:33;98488.97;;;0.49;74.66
216;BME280;64590;48.81286795;9.14184224;2023-01-27T02:31:00;98498.44;;;0.34;74.74
216;BME280;64590;48.81286795;9.14184224;2023-01-27T02:33:26;98483.19;;;0.33;75.07
216;BME280;64590;48.81286795;9.14184224;2023-01-27T02:35:57;98493.13;;;0.55;74.47
216;BME280;64590;48.81286795;9.14184224;2023-01-27T02:38:30;98491.38;;;0.33;75.09
216;BME280;64590;48.81286795;9.14184224;2023-01-27T02:41:02;98500.53;;;0.20;76.21
216;BME280;64590;48.81286795;9.14184224;2023-01-27T02:43:30;98493.16;;;0.12;75.69
216;BME280;64590;48.81286795;9.14184224;2023-01-27T02:45:56;98507.28;;;0.22;75.38
216;BME280;64590;48.81286795;9.14184224;2023-01-27T02:48:23;98500.88;;;0.18;76.43
216;BME280;64590;48.81286795;9.14184224;2023-01-27T02:50:50;98502.47;;;0.37;76.41
216;BME280;64590;48.81286795;9.14184224;2023-01-27T02:53:17;98501.34;;;0.29;74.77
216;BME280;64590;48.81286795;9.14184224;2023-01-27T02:55:43;98491.38;;;0.07;76.03
216;BME280;64590;48.81286795;9.14184224;2023-01-27T02:58:12;98496.84;;;0.24;77.04
216;BME280;64590;48.81286795;9.14184224;2023-01-27T03:00:45;98499.41;;;0.21;76.41
216;BME280;64590;48.81286795;9.14184224;2023-01-27T03:03:11;98496.50;;;0.09;76.82
216;BME280;64590;48.81286795;9.14184224;2023-01-27T03:05:39;98491.69;;;0.40;75.74
216;BME280;64590;48.81286795;9.14184224;2023-01-27T03:08:07;98486.25;;;0.14;76.79
216;BME280;64590;48.81286795;9.14184224;2023-01-27T03:10:34;98490.56;;;0.15;76.97
216;BME280;64590;48.81286795;9.14184224;2023-01-27T03:13:01;98491.56;;;0.19;75.59
216;BME280;64590;48.81286795;9.14184224;2023-01-27T03:15:29;98496.03;;;0.15;76.26
216;BME280;64590;48.81286795;9.14184224;2023-01-27T03:18:13;98492.94;;;-0.09;75.79
216;BME280;64590;48.81286795;9.14184224;2023-01-27T03:20:43;98489.28;;;0.13;75.63
216;BME280;64590;48.81286795;9.14184224;2023-01-27T03:23:12;98496.19;;;0.10;76.55
216;BME280;64590;48.81286795;9.14184224;2023-01-27T03:25:40;98488.00;;;0.10;76.15
216;BME280;64590;48.81286795;9.14184224;2023-01-27T03:28:08;98492.66;;;0.01;76.57
216;BME280;64590;48.81286795;9.14184224;2023-01-27T03:30:48;98497.47;;;0.21;75.79
216;BME280;64590;48.81286795;9.14184224;2023-01-27T03:33:23;98499.72;;;0.11;75.85
216;BME280;64590;48.81286795;9.14184224;2023-01-27T03:35:52;98507.06;;;-0.16;76.92
216;BME280;64590;48.81286795;9.14184224;2023-01-27T03:38:43;98504.03;;;-0.06;75.39
216;BME280;64590;48.81286795;9.14184224;2023-01-27T03:41:27;98503.72;;;-0.04;76.66
216;BME280;64590;48.81286795;9.14184224;2023-01-27T03:44:12;98496.81;;;0.07;76.89
216;BME280;64590;48.81286795;9.14184224;2023-01-27T03:46:57;98503.28;;;0.20;75.62
216;BME280;64590;48.81286795;9.14184224;2023-01-27T03:49:24;98511.13;;;0.04;76.18
216;BME280;64590;48.81286795;9.14184224;2023-01-27T03:51:50;98505.00;;;-0.02;76.74
216;BME280;64590;48.81286795;9.14184224;2023-01-27T03:54:17;98507.28;;;0.22;75.22
216;BME280;64590;48.81286795;9.14184224;2023-01-27T03:56:44;98509.53;;;0.12;75.70
216;BME280;64590;48.81286795;9.14184224;2023-01-27T03:59:12;98507.59;;;0.04;76.62
216;BME280;64590;48.81286795;9.14184224;2023-01-27T04:01:39;98507.75;;;0.07;75.82
216;BME280;64590;48.81286795;9.14184224;2023-01-27T04:04:10;98511.75;;;0.01;76.20
216;BME280;64590;48.81286795;9.14184224;2023-01-27T04:06:54;98506.56;;;-0.18;76.73
216;BME280;64590;48.81286795;9.14184224;2023-01-27T04:09:24;98505.00;;;-0.02;76.68
216;BME280;64590;48.81286795;9.14184224;2023-01-27T04:11:52;98496.22;;;0.19;75.43
216;BME280;64590;48.81286795;9.14184224;2023-01-27T04:14:26;98510.00;;;0.14;76.01
216;BME280;64590;48.81286795;9.14184224;2023-01-27T04:16:54;98505.81;;;0.25;75.68
216;BME280;64590;48.81286795;9.14184224;2023-01-27T04:19:23;98498.41;;;-0.01;76.33
216;BME280;64590;48.81286795;9.14184224;2023-01-27T04:21:50;98510.31;;;0.12;76.23
216;BME280;64590;48.81286795;9.14184224;2023-01-27T04:24:17;98518.16;;;-0.04;76.81
216;BME280;64590;48.81286795;9.14184224;2023-01-27T04:26:50;98513.81;;;-0.13;77.93
216;BME280;64590;48.81286795;9.14184224;2023-01-27T04:29:18;98516.09;;;-0.07;77.35
216;BME280;64590;48.81286795;9.14184224;2023-01-27T04:31:45;98526.97;;;-0.15;77.73
216;BME280;64590;48.81286795;9.14184224;2023-01-27T04:34:12;98527.00;;;-0.07;77.30
216;BME280;64590;48.81286795;9.14184224;2023-01-27T04:36:40;98531.47;;;-0.11;77.61
216;BME280;64590;48.81286795;9.14184224;2023-01-27T04:39:07;98530.19;;;-0.05;77.10
216;BME280;64590;48.81286795;9.14184224;2023-01-27T04:41:34;98527.03;;;0.11;76.67
216;BME280;64590;48.81286795;9.14184224;2023-01-27T04:44:02;98530.06;;;0.09;77.66
216;BME280;64590;48.81286795;9.14184224;2023-01-27T04:46:29;98517.72;;;0.12;76.60
216;BME280;64590;48.81286795;9.14184224;2023-01-27T04:48:56;98523.31;;;0.15;76.35
216;BME280;64590;48.81286795;9.14184224;2023-01-27T04:51:23;98520.75;;;0.10;76.81
216;BME280;64590;48.81286795;9.14184224;2023-01-27T04:53:51;98529.09;;;0.14;76.84
216;BME280;64590;48.81286795;9.14184224;2023-01-27T04:56:22;98530.38;;;0.16;76.88
216;BME280;64590;48.81286795;9.14184224;2023-01-27T04:58:49;98523.78;;;0.09;76.28
216;BME280;64590;48.81286795;9.14184224;2023-01-27T05:01:16;98523.78;;;0.09;76.72
216;BME280;64590;48.81286795;9.14184224;2023-01-27T05:03:42;98508.25;;;0.09;76.52
216;BME280;64590;48.81286795;9.14184224;2023-01-27T05:06:09;98522.50;;;-0.03;76.23
216;BME280;64590;48.81286795;9.14184224;2023-01-27T05:08:36;98526.22;;;0.10;76.22
216;BME280;64590;48.81286795;9.14184224;2023-01-27T05:11:04;98530.38;;;0.25;76.38
216;BME280;64590;48.81286795;9.14184224;2023-01-27T05:13:31;98530.34;;;-0.01;77.17
216;BME280;64590;48.81286795;9.14184224;2023-01-27T05:16:10;98529.88;;;-0.03;76.50
216;BME280;64590;48.81286795;9.14184224;2023-01-27T05:18:38;98519.75;;;-0.03;77.34
216;BME280;64590;48.81286795;9.14184224;2023-01-27T05:21:06;98516.22;;;-0.03;77.01
216;BME280;64590;48.81286795;9.14184224;2023-01-27T05:23:32;98515.59;;;0.17;77.05
216;BME280;64590;48.81286795;9.14184224;2023-01-27T05:26:05;98516.25;;;0.14;77.26
216;BME280;64590;48.81286795;9.14184224;2023-01-27T05:28:32;98516.72;;;0.16;76.92
216;BME280;64590;48.81286795;9.14184224;2023-01-27T05:31:01;98530.56;;;0.46;75.87
216;BME280;64590;48.81286795;9.14184224;2023-01-27T05:33:27;98528.66;;;0.29;76.80
216;BME280;64590;48.81286795;9.14184224;2023-01-27T05:35:57;98537.78;;;0.50;75.84
216;BME280;64590;48.81286795;9.14184224;2023-01-27T05:38:24;98542.28;;;0.38;76.60
216;BME280;64590;48.81286795;9.14184224;2023-01-27T05:40:54;98544.69;;;0.65;76.14
216;BME280;64590;48.81286795;9.14184224;2023-01-27T05:43:22;98544.72;;;0.48;76.69
216;BME280;64590;48.81286795;9.14184224;2023-01-27T05:45:48;98558.84;;;0.59;76.27
216;BME280;64590;48.81286795;9.14184224;2023-01-27T05:48:15;98558.22;;;0.44;77.01
216;BME280;64590;48.81286795;9.14184224;2023-01-27T05:50:42;98567.81;;;0.59;76.47
216;BME280;64590;48.81286795;9.14184224;2023-01-27T05:53:08;98558.03;;;0.58;76.86
216;BME280;64590;48.81286795;9.14184224;2023-01-27T05:55:35;98546.16;;;0.63;76.15
216;BME280;64590;48.81286795;9.14184224;2023-01-27T05:58:01;98546.31;;;0.40;76.88
216;BME280;64590;48.81286795;9.14184224;2023-01-27T06:00:29;98547.44;;;0.31;76.50
216;BME280;64590;48.81286795;9.14184224;2023-01-27T06:02:56;98551.75;;;0.32;76.35
216;BME280;64590;48.81286795;9.14184224;2023-01-27T06:05:22;98547.09;;;0.32;77.53
216;BME280;64590;48.81286795;9.14184224;2023-01-27T06:07:49;98548.06;;;0.27;77.13
216;BME280;64590;48.81286795;9.14184224;2023-01-27T06:10:16;98548.72;;;0.50;77.36
216;BME280;64590;48.81286795;9.14184224;2023-01-27T06:12:42;98541.66;;;0.41;76.00
216;BME280;64590;48.81286795;9.14184224;2023-01-27T06:15:09;98542.09;;;0.25;76.84
216;BME280;64590;48.81286795;9.14184224;2023-01-27T06:17:37;98551.13;;;0.61;77.11
216;BME280;64590;48.81286795;9.14184224;2023-01-27T06:20:04;98542.44;;;0.76;76.15
216;BME280;64590;48.81286795;9.14184224;2023-01-27T06:22:31;98542.63;;;0.45;76.74
216;BME280;64590;48.81286795;9.14184224;2023-01-27T06:24:58;98553.69;;;0.31;76.53
216;BME280;64590;48.81286795;9.14184224;2023-01-27T06:27:24;98550.97;;;0.31;76.47
216;BME280;64590;48.81286795;9.14184224;2023-01-27T06:29:51;98545.66;;;0.52;76.35
216;BME280;64590;48.81286795;9.14184224;2023-01-27T06:32:17;98551.63;;;0.45;75.30
216;BME280;64590;48.81286795;9.14184224;2023-01-27T06:34:45;98554.50;;;0.57;75.94
216;BME280;64590;48.81286795;9.14184224;2023-01-27T06:37:12;98558.34;;;0.56;75.86
216;BME280;64590;48.81286795;9.14184224;2023-01-27T06:39:38;98560.59;;;0.28;76.70
216;BME280;64590;48.81286795;9.14184224;2023-01-27T06:42:05;98560.94;;;0.62;76.32
216;BME280;64590;48.81286795;9.14184224;2023-01-27T06:44:33;98550.16;;;0.65;74.50
216;BME280;64590;48.81286795;9.14184224;2023-01-27T06:47:00;98570.41;;;0.38;75.84
216;BME280;64590;48.81286795;9.14184224;2023-01-27T06:49:26;98568.78;;;0.37;77.00
216;BME280;64590;48.81286795;9.14184224;2023-01-27T06:51:54;98574.41;;;0.41;76.33
216;BME280;64590;48.81286795;9.14184224;2023-01-27T06:54:21;98578.94;;;0.54;75.77
216;BME280;64590;48.81286795;9.14184224;2023-01-27T06:56:47;98583.25;;;0.55;75.85
216;BME280;64590;48.81286795;9.14184224;2023-01-27T06:59:14;98585.97;;;0.38;76.70
216;BME280;64590;48.81286795;9.14184224;2023-01-27T07:01:41;98576.97;;;0.28;75.53
216;BME280;64590;48.81286795;9.14184224;2023-01-27T07:04:08;98596.84;;;0.12;76.74
216;BME280;64590;48.81286795;9.14184224;2023-01-27T07:06:35;98595.78;;;0.39;75.92
216;BME280;64590;48.81286795;9.14184224;2023-01-27T07:09:03;98606.38;;;0.57;76.10
216;BME280;64590;48.81286795;9.14184224;2023-01-27T07:11:29;98602.03;;;0.39;76.69
216;BME280;64590;48.81286795;9.14184224;2023-01-27T07:13:56;98612.97;;;0.48;76.83
216;BME280;64590;48.81286795;9.14184224;2023-01-27T07:16:22;98616.50;;;0.48;75.88
216;BME280;64590;48.81286795;9.14184224;2023-01-27T07:18:49;98623.41;;;0.46;76.95
216;BME280;64590;48.81286795;9.14184224;2023-01-27T07:21:15;98621.63;;;0.41;76.13
216;BME280;64590;48.81286795;9.14184224;2023-01-27T07:23:42;98623.25;;;0.60;75.38
216;BME280;64590;48.81286795;9.14184224;2023-01-27T07:26:10;98627.28;;;0.45;75.59
216;BME280;64590;48.81286795;9.14184224;2023-01-27T07:28:36;98622.44;;;0.59;75.36
216;BME280;64590;48.81286795;9.14184224;2023-01-27T07:31:03;98623.56;;;0.41;75.48
216;BME280;64590;48.81286795;9.14184224;2023-01-27T07:33:30;98629.19;;;0.36;75.89
216;BME280;64590;48.81286795;9.14184224;2023-01-27T07:35:56;98615.69;;;0.48;75.32
216;BME280;64590;48.81286795;9.14184224;2023-01-27T07:38:23;98621.97;;;0.48;75.32
216;BME280;64590;48.81286795;9.14184224;2023-01-27T07:40:49;98634.59;;;0.18;75.75
216;BME280;64590;48.81286795;9.14184224;2023-01-27T07:43:17;98637.69;;;0.43;76.02
216;BME280;64590;48.81286795;9.14184224;2023-01-27T07:45:45;98636.09;;;0.50;76.47
216;BME280;64590;48.81286795;9.14184224;2023-01-27T07:48:13;98630.03;;;0.62;75.90
216;BME280;64590;48.81286795;9.14184224;2023-01-27T07:50:40;98635.78;;;0.52;76.20
216;BME280;64590;48.81286795;9.14184224;2023-01-27T07:53:08;98632.44;;;0.64;76.17
216;BME280;64590;48.81286795;9.14184224;2023-01-27T07:55:35;98643.00;;;0.39;76.76
216;BME280;64590;48.81286795;9.14184224;2023-01-27T07:58:01;98639.03;;;0.63;74.90
216;BME280;64590;48.81286795;9.14184224;2023-01-27T08:00:30;98647.56;;;0.70;74.92
216;BME280;64590;48.81286795;9.14184224;2023-01-27T08:02:59;98659.09;;;0.67;74.85
216;BME280;64590;48.81286795;9.14184224;2023-01-27T08:05:27;98643.97;;;0.61;74.80
216;BME280;64590;48.81286795;9.14184224;2023-01-27T08:07:54;98649.56;;;0.38;74.66
216;BME280;64590;48.81286795;9.14184224;2023-01-27T08:10:21;98650.56;;;0.51;74.73
216;BME280;64590;48.81286795;9.14184224;2023-01-27T08:12:48;98652.78;;;0.40;75.48
216;BME280;64590;48.81286795;9.14184224;2023-01-27T08:15:14;98657.13;;;0.50;75.82
216;BME280;64590;48.81286795;9.14184224;2023-01-27T08:17:42;98657.47;;;0.48;75.18
216;BME280;64590;48.81286795;9.14184224;2023-01-27T08:20:10;98663.09;;;0.61;74.63
216;BME280;64590;48.81286795;9.14184224;2023-01-27T08:22:36;98654.72;;;0.40;75.39
216;BME280;64590;48.81286795;9.14184224;2023-01-27T08:25:04;98658.19;;;0.23;75.50
216;BME280;64590;48.81286795;9.14184224;2023-01-27T08:27:30;98656.44;;;0.18;76.22
216;BME280;64590;48.81286795;9.14184224;2023-01-27T08:29:57;98668.19;;;0.27;75.15
216;BME280;64590;48.81286795;9.14184224;2023-01-27T08:32:24;98667.19;;;0.23;76.04
216;BME280;64590;48.81286795;9.14184224;2023-01-27T08:34:51;98670.09;;;0.18;75.84
216;BME280;64590;48.81286795;9.14184224;2023-01-27T08:37:18;98673.38;;;0.46;74.88
216;BME280;64590;48.81286795;9.14184224;2023-01-27T08:39:45;98682.13;;;0.26;75.07
216;BME280;64590;48.81286795;9.14184224;2023-01-27T08:42:11;98672.19;;;0.30;75.93
216;BME280;64590;48.81286795;9.14184224;2023-01-27T08:44:38;98669.34;;;0.35;74.85
216;BME280;64590;48.81286795;9.14184224;2023-01-27T08:47:05;98672.78;;;0.10;75.73
216;BME280;64590;48.81286795;9.14184224;2023-01-27T08:49:31;98681.00;;;0.18;75.69
216;BME280;64590;48.81286795;9.14184224;2023-01-27T08:51:59;98684.19;;;0.12;75.67
216;BME280;64590;48.81286795;9.14184224;2023-01-27T08:54:26;98681.78;;;0.10;75.50
216;BME280;64590;48.81286795;9.14184224;2023-01-27T08:56:52;98669.00;;;0.28;74.52
216;BME280;64590;48.81286795;9.14184224;2023-01-27T08:59:19;98681.22;;;0.39;74.78
216;BME280;64590;48.81286795;9.14184224;2023-01-27T09:01:45;98682.69;;;0.45;75.17
216;BME280;64590;48.81286795;9.14184224;2023-01-27T09:04:12;98689.44;;;0.56;73.59
216;BME280;64590;48.81286795;9.14184224;2023-01-27T09:06:39;98686.06;;;0.51;73.57
216;BME280;64590;48.81286795;9.14184224;2023-01-27T09:09:07;98692.28;;;0.43;73.85
216;BME280;64590;48.81286795;9.14184224;2023-01-27T09:11:38;98688.16;;;0.45;73.21
216;BME280;64590;48.81286795;9.14184224;2023-01-27T09:14:05;98685.97;;;0.25;74.42
216;BME280;64590;48.81286795;9.14184224;2023-01-27T09:16:32;98680.56;;;0.34;73.55
216;BME280;64590;48.81286795;9.14184224;2023-01-27T09:18:58;98676.22;;;0.41;73.67
216;BME280;64590;48.81286795;9.14184224;2023-01-27T09:21:25;98679.16;;;0.45;74.71
216;BME280;64590;48.81286795;9.14184224;2023-01-27T09:23:51;98679.41;;;0.26;74.72
216;BME280;64590;48.81286795;9.14184224;2023-01-27T09:26:19;98683.06;;;0.61;73.07
216;BME280;64590;48.81286795;9.14184224;2023-01-27T09:28:46;98684.94;;;0.61;72.40
216;BME280;64590;48.81286795;9.14184224;2023-01-27T09:31:12;98693.47;;;0.59;73.66
216;BME280;64590;48.81286795;9.14184224;2023-01-27T09:33:39;98674.00;;;0.43;73.53
216;BME280;64590;48.81286795;9.14184224;2023-01-27T09:36:09;98687.81;;;0.47;72.43
216;BME280;64590;48.81286795;9.14184224;2023-01-27T09:38:39;98690.84;;;0.37;73.78
216;BME280;64590;48.81286795;9.14184224;2023-01-27T09:41:37;98687.63;;;0.35;72.88
216;BME280;64590;48.81286795;9.14184224;2023-01-27T09:44:21;98689.88;;;0.41;74.10
216;BME280;64590;48.81286795;9.14184224;2023-01-27T09:47:10;98687.63;;;0.35;74.25
216;BME280;64590;48.81286795;9.14184224;2023-01-27T09:49:56;98688.50;;;0.52;74.25
216;BME280;64590;48.81286795;9.14184224;2023-01-27T09:52:40;98691.00;;;0.40;74.43
216;BME280;64590;48.81286795;9.14184224;2023-01-27T09:55:15;98692.84;;;0.53;74.01
216;BME280;64590;48.81286795;9.14184224;2023-01-27T09:57:50;98693.16;;;0.69;74.11
216;BME280;64590;48.81286795;9.14184224;2023-01-27T10:00:26;98699.59;;;0.65;74.43
216;BME280;64590;48.81286795;9.14184224;2023-01-27T10:03:07;98689.41;;;0.39;74.17
216;BME280;64590;48.81286795;9.14184224;2023-01-27T10:05:48;98697.53;;;0.79;73.71
216;BME280;64590;48.81286795;9.14184224;2023-01-27T10:08:40;98698.09;;;0.50;73.97
216;BME280;64590;48.81286795;9.14184224;2023-01-27T10:11:17;98689.16;;;0.75;73.43
216;BME280;64590;48.81286795;9.14184224;2023-01-27T10:13:57;98681.63;;;0.90;71.30
216;BME280;64590;48.81286795;9.14184224;2023-01-27T10:16:40;98697.69;;;0.91;72.41
216;BME280;64590;48.81286795;9.14184224;2023-01-27T10:19:33;98694.81;;;0.79;71.65
216;BME280;64590;48.81286795;9.14184224;2023-01-27T10:22:13;98689.19;;;0.93;72.33
216;BME280;64590;48.81286795;9.14184224;2023-01-27T10:24:50;98691.28;;;0.96;71.56
216;BME280;64590;48.81286795;9.14184224;2023-01-27T10:27:22;98681.97;;;0.97;71.29
216;BME280;64590;48.81286795;9.14184224;2023-01-27T10:29:55;98691.44;;;1.17;71.61
216;BME280;64590;48.81286795;9.14184224;2023-01-27T10:32:25;98684.84;;;1.18;70.33
216;BME280;64590;48.81286795;9.14184224;2023-01-27T10:35:08;98694.03;;;1.04;72.10
216;BME280;64590;48.81286795;9.14184224;2023-01-27T10:37:46;98691.13;;;1.18;71.53
216;BME280;64590;48.81286795;9.14184224;2023-01-27T10:40:21;98686.91;;;1.38;69.43
216;BME280;64590;48.81286795;9.14184224;2023-01-27T10:42:57;98687.09;;;1.16;70.97
216;BME280;64590;48.81286795;9.14184224;2023-01-27T10:45:34;98689.50;;;1.08;70.15
216;BME280;64590;48.81286795;9.14184224;2023-01-27T10:48:16;98693.50;;;1.28;69.99
216;BME280;64590;48.81286795;9.14184224;2023-01-27T10:50:49;98694.81;;;1.22;70.45
216;BME280;64590;48.81286795;9.14184224;2023-01-27T10:53:22;98679.06;;;1.10;69.41
216;BME280;64590;48.81286795;9.14184224;2023-01-27T10:55:55;98698.34;;;1.40;70.79
216;BME280;64590;48.81286795;9.14184224;2023-01-27T10:58:32;98697.06;;;1.20;69.88
216;BME280;64590;48.81286795;9.14184224;2023-01-27T11:01:04;98692.72;;;1.02;71.29
216;BME280;64590;48.81286795;9.14184224;2023-01-27T11:03:34;98688.03;;;0.94;72.65
216;BME280;64590;48.81286795;9.14184224;2023-01-27T11:06:06;98689.50;;;1.08;72.80
216;BME280;64590;48.81286795;9.14184224;2023-01-27T11:08:36;98693.50;;;0.94;71.96
216;BME280;64590;48.81286795;9.14184224;2023-01-27T11:11:06;98691.13;;;1.27;71.03
216;BME280;64590;48.81286795;9.14184224;2023-01-27T11:14:00;98692.38;;;1.38;69.79
216;BME280;64590;48.81286795;9.14184224;2023-01-27T11:16:33;98695.44;;;1.36;70.52
216;BME280;64590;48.81286795;9.14184224;2023-01-27T11:19:10;98690.63;;;1.16;71.41
216;BME280;64590;48.81286795;9.14184224;2023-01-27T11:21:40;98694.50;;;1.41;70.12
216;BME280;64590;48.81286795;9.14184224;2023-01-27T11:24:19;98684.69;;;1.23;69.87
216;BME280;64590;48.81286795;9.14184224;2023-01-27T11:26:52;98697.06;;;1.11;72.14
216;BME280;64590;48.81286795;9.14184224;2023-01-27T11:29:29;98680.97;;;1.19;71.35
216;BME280;64590;48.81286795;9.14184224;2023-01-27T11:32:03;98683.38;;;1.20;71.59
216;BME280;64590;48.81286795;9.14184224;2023-01-27T11:34:40;98686.44;;;1.27;71.92
216;BME280;64590;48.81286795;9.14184224;2023-01-27T11:37:16;98682.75;;;1.15;71.43
216;BME280;64590;48.81286795;9.14184224;2023-01-27T11:39:44;98672.31;;;1.08;71.71
216;BME280;64590;48.81286795;9.14184224;2023-01-27T11:42:10;98673.75;;;1.05;71.53
216;BME280;64590;48.81286795;9.14184224;2023-01-27T11:44:38;98672.31;;;1.25;69.87
216;BME280;64590;48.81286795;9.14184224;2023-01-27T11:47:08;98668.59;;;1.30;70.86
216;BME280;64590;48.81286795;9.14184224;2023-01-27T11:49:43;98663.56;;;1.58;70.09
216;BME280;64590;48.81286795;9.14184224;2023-01-27T11:52:13;98667.28;;;1.45;71.04
216;BME280;64590;48.81286795;9.14184224;2023-01-27T11:54:43;98668.91;;;1.28;71.92
216;BME280;64590;48.81286795;9.14184224;2023-01-27T11:57:17;98665.59;;;1.78;69.55
216;BME280;64590;48.81286795;9.14184224;2023-01-27T11:59:47;98674.53;;;1.49;70.46
216;BME280;64590;48.81286795;9.14184224;2023-01-27T12:02:29;98659.69;;;1.59;70.11
216;BME280;64590;48.81286795;9.14184224;2023-01-27T12:05:02;98665.13;;;1.76;69.70